Time,TemperatureF,DewpointF,PressureIn,WindDirection,WindDirectionDegrees,WindSpeedMPH,WindSpeedGustMPH,Humidity,HourlyPrecipIn,Conditions,Clouds,dailyrainin,SoftwareType,DateUTC
2013-09-24 00:10:00,43.0,39.1,29.78,WNW,291,0.9,2.0,86,0.00,,,0.00,WUHU216HW,2013-09-24 04:10:00,
2013-09-24 00:25:00,43.0,39.1,29.78,WNW,286,0.7,1.6,86,0.00,,,0.00,WUHU216HW,2013-09-24 04:25:00,
2013-09-24 00:40:00,43.0,39.4,29.77,NNW,342,0.6,1.1,87,0.00,,,0.00,WUHU216HW,2013-09-24 04:40:00,
2013-09-24 00:55:00,43.4,40.1,29.77,WNW,282,1.0,2.5,88,0.00,,,0.00,WUHU216HW,2013-09-24 04:55:00,
2013-09-24 01:10:00,43.7,40.4,29.77,West,276,1.3,2.7,88,0.00,,,0.00,WUHU216HW,2013-09-24 05:10:00,
2013-09-24 01:25:00,43.9,40.6,29.76,West,272,1.3,2.5,88,0.00,,,0.00,WUHU216HW,2013-09-24 05:25:00,
2013-09-24 01:40:00,43.9,40.6,29.76,WNW,286,0.9,2.7,88,0.00,,,0.00,WUHU216HW,2013-09-24 05:40:00,
2013-09-24 01:55:00,44.1,40.5,29.76,West,277,1.7,4.0,87,0.00,,,0.00,WUHU216HW,2013-09-24 05:55:00,
2013-09-24 02:10:00,44.5,40.2,29.76,West,265,1.4,3.4,85,0.00,,,0.00,WUHU216HW,2013-09-24 06:10:00,
2013-09-24 02:25:00,44.5,40.2,29.76,WSW,250,1.3,3.4,85,0.00,,,0.00,WUHU216HW,2013-09-24 06:25:00,
2013-09-24 02:40:00,44.6,40.4,29.75,West,263,1.3,4.3,85,0.00,,,0.00,WUHU216HW,2013-09-24 06:40:00,
2013-09-24 02:55:00,44.3,40.1,29.75,WNW,285,0.8,1.8,85,0.00,,,0.00,WUHU216HW,2013-09-24 06:55:00,
2013-09-24 03:10:00,44.1,39.9,29.75,West,262,1.1,2.7,85,0.00,,,0.00,WUHU216HW,2013-09-24 07:10:00,
2013-09-24 03:25:00,44.1,39.9,29.74,WNW,289,1.0,1.8,85,0.00,,,0.00,WUHU216HW,2013-09-24 07:25:00,
2013-09-24 03:40:00,43.6,39.3,29.75,NNE,23,0.4,0.4,85,0.00,,,0.00,WUHU216HW,2013-09-24 07:40:00,
2013-09-24 03:55:00,42.7,38.4,29.74,West,270,0.5,1.1,85,0.00,,,0.00,WUHU216HW,2013-09-24 07:55:00,
2013-09-24 04:10:00,42.3,38.1,29.74,NW,315,0.5,1.1,85,0.00,,,0.00,WUHU216HW,2013-09-24 08:10:00,
2013-09-24 04:25:00,41.8,37.5,29.73,West,270,0.4,0.4,85,0.00,,,0.00,WUHU216HW,2013-09-24 08:25:00,
2013-09-24 04:40:00,41.2,37.3,29.73,NW,314,0.8,1.6,86,0.00,,,0.00,WUHU216HW,2013-09-24 08:40:00,
2013-09-24 04:55:00,40.7,36.8,29.73,NNE,28,0.5,0.9,86,0.00,,,0.00,WUHU216HW,2013-09-24 08:55:00,
2013-09-24 05:10:00,40.1,36.5,29.73,WSW,250,0.6,1.3,87,0.00,,,0.00,WUHU216HW,2013-09-24 09:10:00,
2013-09-24 05:25:00,39.8,36.2,29.73,NNE,30,0.6,1.1,87,0.00,,,0.00,WUHU216HW,2013-09-24 09:25:00,
2013-09-24 05:40:00,39.6,36.0,29.74,West,273,0.7,1.3,87,0.00,,,0.00,WUHU216HW,2013-09-24 09:40:00,
2013-09-24 05:55:00,39.2,35.6,29.73,WNW,293,0.5,0.7,87,0.00,,,0.00,WUHU216HW,2013-09-24 09:55:00,
2013-09-24 06:10:00,39.1,35.5,29.73,NNW,332,0.5,1.1,87,0.00,,,0.00,WUHU216HW,2013-09-24 10:10:00,
2013-09-24 06:25:00,38.5,35.3,29.73,NNE,24,0.6,0.9,88,0.00,,,0.00,WUHU216HW,2013-09-24 10:25:00,
2013-09-24 06:40:00,38.5,35.6,29.73,WNW,290,0.6,1.1,89,0.00,,,0.00,WUHU216HW,2013-09-24 10:40:00,
2013-09-24 06:55:00,38.9,36.2,29.73,WNW,288,0.9,1.8,90,0.00,,,0.00,WUHU216HW,2013-09-24 10:55:00,
2013-09-24 07:10:00,39.2,36.5,29.73,North,354,0.4,0.7,90,0.00,,,0.00,WUHU216HW,2013-09-24 11:10:00,
2013-09-24 07:25:00,38.9,35.9,29.73,NNE,33,0.4,0.7,89,0.00,,,0.00,WUHU216HW,2013-09-24 11:25:00,
2013-09-24 07:40:00,39.1,36.4,29.72,North,358,0.6,1.3,90,0.00,,,0.00,WUHU216HW,2013-09-24 11:40:00,
2013-09-24 07:55:00,40.1,37.4,29.71,NNE,26,0.8,1.8,90,0.00,,,0.00,WUHU216HW,2013-09-24 11:55:00,
2013-09-24 08:10:00,43.0,40.1,29.70,ESE,111,1.1,3.1,89,0.00,,,0.00,WUHU216HW,2013-09-24 12:10:00,
2013-09-24 08:25:00,46.1,42.5,29.70,South,188,1.0,2.5,87,0.00,,,0.00,WUHU216HW,2013-09-24 12:25:00,
2013-09-24 08:40:00,48.6,43.3,29.69,SSE,155,1.5,3.4,82,0.00,,,0.00,WUHU216HW,2013-09-24 12:40:00,
2013-09-24 08:55:00,50.2,43.6,29.69,South,188,1.2,4.0,78,0.00,,,0.00,WUHU216HW,2013-09-24 12:55:00,
2013-09-24 09:10:00,51.7,43.0,29.68,North,352,1.7,4.9,72,0.00,,,0.00,WUHU216HW,2013-09-24 13:10:00,
2013-09-24 09:25:00,52.9,43.8,29.67,WSW,245,1.8,4.7,71,0.00,,,0.00,WUHU216HW,2013-09-24 13:25:00,
2013-09-24 09:40:00,54.2,44.3,29.68,SSW,198,1.3,4.0,69,0.00,,,0.00,WUHU216HW,2013-09-24 13:40:00,
2013-09-24 09:55:00,54.9,44.6,29.68,SE,144,1.5,4.3,68,0.00,,,0.00,WUHU216HW,2013-09-24 13:55:00,
2013-09-24 10:10:00,55.8,44.2,29.68,SE,143,1.3,3.6,65,0.00,,,0.00,WUHU216HW,2013-09-24 14:10:00,
2013-09-24 10:25:00,56.5,44.0,29.69,SE,144,2.1,9.8,63,0.00,,,0.00,WUHU216HW,2013-09-24 14:25:00,
2013-09-24 10:40:00,56.9,43.6,29.70,WSW,245,1.8,7.8,61,0.00,,,0.00,WUHU216HW,2013-09-24 14:40:00,
2013-09-24 10:55:00,57.2,42.7,29.69,West,276,3.2,9.2,58,0.00,,,0.00,WUHU216HW,2013-09-24 14:55:00,
2013-09-24 11:10:00,56.9,42.3,29.68,West,277,4.0,9.4,58,0.00,,,0.00,WUHU216HW,2013-09-24 15:10:00,
2013-09-24 11:25:00,56.3,41.8,29.69,West,273,4.0,13.9,58,0.00,,,0.00,WUHU216HW,2013-09-24 15:25:00,
2013-09-24 11:40:00,57.1,42.9,29.68,West,260,4.4,9.8,59,0.00,,,0.00,WUHU216HW,2013-09-24 15:40:00,
2013-09-24 11:55:00,56.2,42.0,29.69,WSW,242,3.2,10.5,59,0.00,,,0.00,WUHU216HW,2013-09-24 15:55:00,
2013-09-24 12:10:00,55.6,42.4,29.68,SSE,164,2.1,9.6,61,0.00,,,0.00,WUHU216HW,2013-09-24 16:10:00,
2013-09-24 12:25:00,55.4,42.6,29.68,SSE,164,1.4,3.8,62,0.00,,,0.00,WUHU216HW,2013-09-24 16:25:00,
2013-09-24 12:40:00,55.4,43.0,29.66,SSE,154,1.5,3.4,63,0.00,,,0.00,WUHU216HW,2013-09-24 16:40:00,
2013-09-24 12:55:00,55.8,43.4,29.67,South,189,1.1,2.5,63,0.00,,,0.00,WUHU216HW,2013-09-24 16:55:00,
2013-09-24 13:10:00,56.2,43.8,29.66,SSE,160,0.9,2.5,63,0.00,,,0.00,WUHU216HW,2013-09-24 17:10:00,
2013-09-24 13:25:00,56.7,45.0,29.66,East,91,1.1,2.5,65,0.00,,,0.00,WUHU216HW,2013-09-24 17:25:00,
2013-09-24 13:40:00,57.2,45.5,29.66,NE,47,1.0,1.8,65,0.00,,,0.00,WUHU216HW,2013-09-24 17:40:00,
2013-09-24 13:55:00,57.4,45.3,29.67,West,264,1.6,5.4,64,0.00,,,0.00,WUHU216HW,2013-09-24 17:55:00,
2013-09-24 14:10:00,57.1,45.0,29.68,West,266,2.0,4.9,64,0.00,,,0.00,WUHU216HW,2013-09-24 18:10:00,
2013-09-24 14:25:00,56.7,45.0,29.68,West,273,1.9,4.5,65,0.00,,,0.00,WUHU216HW,2013-09-24 18:25:00,
2013-09-24 14:40:00,56.7,45.5,29.69,WSW,253,1.0,2.2,66,0.00,,,0.00,WUHU216HW,2013-09-24 18:40:00,
2013-09-24 14:55:00,56.3,45.1,29.69,West,266,1.7,5.1,66,0.00,,,0.00,WUHU216HW,2013-09-24 18:55:00,
2013-09-24 15:10:00,56.0,44.7,29.69,SSE,159,0.9,3.6,66,0.00,,,0.00,WUHU216HW,2013-09-24 19:10:00,
2013-09-24 15:25:00,55.4,45.1,29.70,ESE,113,1.2,2.7,68,0.00,,,0.00,WUHU216HW,2013-09-24 19:25:00,
2013-09-24 15:40:00,55.3,44.9,29.70,West,265,1.3,3.8,68,0.00,,,0.00,WUHU216HW,2013-09-24 19:40:00,
2013-09-24 15:55:00,55.1,45.5,29.70,West,275,1.6,4.0,70,0.00,,,0.00,WUHU216HW,2013-09-24 19:55:00,
2013-09-24 16:10:00,55.1,45.1,29.69,WNW,286,1.8,4.7,69,0.00,,,0.00,WUHU216HW,2013-09-24 20:10:00,
2013-09-24 16:25:00,55.4,44.6,29.70,West,261,2.4,5.1,67,0.00,,,0.00,WUHU216HW,2013-09-24 20:25:00,
2013-09-24 16:40:00,55.3,45.3,29.70,SE,140,0.9,2.5,69,0.00,,,0.00,WUHU216HW,2013-09-24 20:40:00,
2013-09-24 16:55:00,54.7,45.2,29.70,East,93,1.3,3.8,70,0.00,,,0.00,WUHU216HW,2013-09-24 20:55:00,
2013-09-24 17:10:00,54.7,45.6,29.70,SW,215,0.7,2.5,71,0.00,,,0.00,WUHU216HW,2013-09-24 21:10:00,
2013-09-24 17:25:00,54.4,44.8,29.71,ESE,117,1.1,2.9,70,0.00,,,0.00,WUHU216HW,2013-09-24 21:25:00,
2013-09-24 17:40:00,54.4,45.2,29.71,West,259,1.5,7.6,71,0.00,,,0.00,WUHU216HW,2013-09-24 21:40:00,
2013-09-24 17:55:00,53.8,44.7,29.71,WNW,293,1.2,5.6,71,0.00,,,0.00,WUHU216HW,2013-09-24 21:55:00,
2013-09-24 18:10:00,53.5,44.6,29.72,WSW,255,1.5,5.1,72,0.00,,,0.00,WUHU216HW,2013-09-24 22:10:00,
2013-09-24 18:25:00,53.3,44.5,29.71,NW,316,1.5,6.3,72,0.00,,,0.00,WUHU216HW,2013-09-24 22:25:00,
2013-09-24 18:40:00,52.7,44.0,29.71,SSE,147,1.1,3.1,72,0.00,,,0.00,WUHU216HW,2013-09-24 22:40:00,
2013-09-24 18:55:00,52.4,44.0,29.71,ENE,61,1.3,3.1,73,0.00,,,0.00,WUHU216HW,2013-09-24 22:55:00,
2013-09-24 19:10:00,52.2,43.5,29.72,NW,319,0.9,2.9,72,0.00,,,0.00,WUHU216HW,2013-09-24 23:10:00,
2013-09-24 19:25:00,52.2,43.8,29.72,North,7,0.6,1.1,73,0.00,,,0.00,WUHU216HW,2013-09-24 23:25:00,
2013-09-24 19:40:00,51.5,43.8,29.73,SE,137,0.6,1.1,75,0.00,,,0.00,WUHU216HW,2013-09-24 23:40:00,
2013-09-24 19:55:00,51.1,44.5,29.73,WNW,282,0.9,2.0,78,0.00,,,0.00,WUHU216HW,2013-09-24 23:55:00,
2013-09-24 20:10:00,50.6,43.9,29.73,NW,308,1.0,2.0,78,0.00,,,0.00,WUHU216HW,2013-09-25 00:10:00,
2013-09-24 20:25:00,50.2,44.3,29.72,NW,325,0.7,2.2,80,0.00,,,0.00,WUHU216HW,2013-09-25 00:25:00,
2013-09-24 20:40:00,50.0,44.1,29.72,NW,307,0.6,1.8,80,0.00,,,0.00,WUHU216HW,2013-09-25 00:40:00,
2013-09-24 20:55:00,49.7,43.7,29.72,NW,308,0.7,1.3,80,0.00,,,0.00,WUHU216HW,2013-09-25 00:55:00,
2013-09-24 21:10:00,49.5,43.8,29.72,NW,304,0.5,1.1,81,0.00,,,0.00,WUHU216HW,2013-09-25 01:10:00,
2013-09-24 21:25:00,49.3,44.0,29.73,North,0,0.0,0.0,82,0.00,,,0.00,WUHU216HW,2013-09-25 01:25:00,
2013-09-24 21:40:00,49.5,44.2,29.73,WNW,297,0.7,1.3,82,0.00,,,0.00,WUHU216HW,2013-09-25 01:40:00,
2013-09-24 21:55:00,49.7,44.4,29.73,North,0,0.0,0.0,82,0.00,,,0.00,WUHU216HW,2013-09-25 01:55:00,
2013-09-24 22:10:00,49.0,44.0,29.73,WSW,254,0.5,0.9,83,0.00,,,0.00,WUHU216HW,2013-09-25 02:10:00,
2013-09-24 22:25:00,49.0,44.0,29.73,NNW,344,0.4,0.7,83,0.00,,,0.00,WUHU216HW,2013-09-25 02:25:00,
2013-09-24 22:40:00,48.8,44.1,29.73,West,280,1.1,2.2,84,0.00,,,0.00,WUHU216HW,2013-09-25 02:40:00,
2013-09-24 22:55:00,48.4,43.5,29.73,NW,320,0.8,1.3,83,0.00,,,0.00,WUHU216HW,2013-09-25 02:55:00,
2013-09-24 23:10:00,47.9,42.9,29.73,NW,315,0.2,0.2,83,0.00,,,0.00,WUHU216HW,2013-09-25 03:10:00,
2013-09-24 23:25:00,47.0,42.1,29.72,NW,304,0.6,1.3,83,0.00,,,0.00,WUHU216HW,2013-09-25 03:25:00,
2013-09-24 23:40:00,46.4,42.0,29.72,West,270,0.6,1.6,84,0.00,,,0.00,WUHU216HW,2013-09-25 03:40:00,
2013-09-24 23:55:00,46.3,42.0,29.72,NNW,338,0.3,0.4,85,0.00,,,0.00,WUHU216HW,2013-09-25 03:55:00,